Time;durP1;ratioP1;P1;durP2;ratioP2;P2;SDS_P1;SDS_P2;PMS_P1;PMS_P2;Temp;Humidity;BMP_temperature;BMP_pressure;BME280_temperature;BME280_humidity;BME280_pressure;Samples;Min_cycle;Max_cycle;Signal;HPM_P1;HPM_P2
2022/08/25 00:00:19;;;;;;;63.50;52.28;;;26.90;55.30;;;;;;4922616;28;89892;-56
2022/08/25 00:02:44;;;;;;;64.25;51.97;;;27.00;55.40;;;;;;4917190;28;95448;-55
2022/08/25 00:05:10;;;;;;;63.58;52.05;;;26.90;55.30;;;;;;4922101;28;94840;-57
2022/08/25 00:07:36;;;;;;;64.30;52.15;;;26.90;55.40;;;;;;4918679;28;90121;-55
2022/08/25 00:10:03;;;;;;;64.50;52.05;;;26.90;55.40;;;;;;4912568;28;90689;-57
2022/08/25 00:12:29;;;;;;;65.60;52.38;;;26.90;55.40;;;;;;4920874;28;89100;-55
2022/08/25 00:14:54;;;;;;;64.03;52.15;;;26.90;55.50;;;;;;4915590;28;90399;-57
2022/08/25 00:17:20;;;;;;;63.50;51.88;;;26.90;55.50;;;;;;4926276;28;90339;-57
2022/08/25 00:19:46;;;;;;;63.85;52.05;;;26.90;56.00;;;;;;4922399;28;93240;-57
2022/08/25 00:22:11;;;;;;;63.60;51.85;;;26.90;55.50;;;;;;4916815;28;90523;-55
2022/08/25 00:24:37;;;;;;;63.90;52.00;;;26.80;55.50;;;;;;4922710;28;91234;-54
2022/08/25 00:27:03;;;;;;;63.25;51.90;;;26.90;55.60;;;;;;4916012;28;91984;-54
2022/08/25 00:29:29;;;;;;;63.35;52.00;;;26.90;55.60;;;;;;4915947;28;91426;-54
2022/08/25 00:31:56;;;;;;;63.08;51.72;;;26.90;55.60;;;;;;4917350;28;91376;-56
2022/08/25 00:34:28;;;;;;;63.35;51.75;;;26.90;55.60;;;;;;4926389;28;91294;-57
2022/08/25 00:36:54;;;;;;;63.33;51.88;;;26.90;55.60;;;;;;4914091;28;89275;-57
2022/08/25 00:39:22;;;;;;;64.03;52.13;;;26.90;55.60;;;;;;4933583;28;92189;-55
2022/08/25 00:41:49;;;;;;;63.67;51.97;;;26.90;55.60;;;;;;4915791;28;91792;-52
2022/08/25 00:44:18;;;;;;;64.05;52.22;;;26.80;55.60;;;;;;4916843;28;91675;-55
2022/08/25 00:46:53;;;;;;;63.67;52.10;;;26.80;55.60;;;;;;4926186;28;93280;-53
2022/08/25 00:49:36;;;;;;;63.42;52.10;;;26.80;55.70;;;;;;4908701;28;91527;-56
2022/08/25 00:52:16;;;;;;;63.88;52.03;;;26.80;55.70;;;;;;4909624;28;90816;-56
2022/08/25 00:54:49;;;;;;;65.20;51.95;;;26.80;55.70;;;;;;4925879;28;93272;-55
2022/08/25 00:57:20;;;;;;;63.35;51.97;;;26.80;55.70;;;;;;4922303;28;90440;-56
2022/08/25 00:59:46;;;;;;;63.67;52.08;;;26.80;55.80;;;;;;4918115;28;89985;-56
2022/08/25 01:02:14;;;;;;;62.70;51.63;;;26.90;55.80;;;;;;4921012;28;89092;-56
2022/08/25 01:04:41;;;;;;;64.30;51.95;;;26.80;55.80;;;;;;4914619;28;90595;-56
2022/08/25 01:07:07;;;;;;;63.72;51.85;;;26.80;55.90;;;;;;4912945;28;90404;-56
2022/08/25 01:09:33;;;;;;;63.03;52.03;;;26.80;55.90;;;;;;4915464;28;93126;-55
2022/08/25 01:11:59;;;;;;;63.10;51.90;;;26.80;55.90;;;;;;4915935;28;92922;-56
2022/08/25 01:14:26;;;;;;;62.95;51.75;;;26.80;55.90;;;;;;4916310;28;90792;-54
2022/08/25 01:16:53;;;;;;;62.70;51.92;;;26.80;55.90;;;;;;4916044;28;90990;-56
2022/08/25 01:19:20;;;;;;;63.88;52.17;;;26.80;56.00;;;;;;4932744;28;90580;-55
2022/08/25 01:21:48;;;;;;;63.05;51.80;;;26.80;56.00;;;;;;4923245;28;90018;-55
2022/08/25 01:24:43;;;;;;;63.13;52.00;;;26.80;56.00;;;;;;4915093;28;91054;-56
2022/08/25 01:27:09;;;;;;;63.00;51.60;;;26.80;56.70;;;;;;4917347;28;92677;-56
2022/08/25 01:29:36;;;;;;;63.17;51.75;;;26.80;56.10;;;;;;4912245;28;91119;-57
2022/08/25 01:32:06;;;;;;;63.90;51.88;;;26.80;56.10;;;;;;4915254;28;89822;-56
2022/08/25 01:34:36;;;;;;;63.53;52.05;;;26.80;56.10;;;;;;4918133;28;92274;-55
2022/08/25 01:37:02;;;;;;;62.67;51.55;;;26.70;56.10;;;;;;4913683;28;91011;-56
2022/08/25 01:39:32;;;;;;;63.63;51.88;;;26.70;56.20;;;;;;4915001;28;91290;-55
2022/08/25 01:42:19;;;;;;;62.72;51.88;;;26.70;56.10;;;;;;4915097;28;90534;-55
2022/08/25 01:44:46;;;;;;;63.17;52.05;;;26.80;56.20;;;;;;4915726;28;90137;-57
2022/08/25 01:47:13;;;;;;;62.97;51.83;;;26.70;56.20;;;;;;4911001;28;90893;-56
2022/08/25 01:49:39;;;;;;;63.13;52.05;;;26.70;56.20;;;;;;4924563;28;91270;-57
2022/08/25 01:52:32;;;;;;;62.58;51.88;;;26.70;56.20;;;;;;4913863;28;89232;-55
2022/08/25 01:54:58;;;;;;;62.65;51.72;;;26.80;56.30;;;;;;4918129;28;91085;-56
2022/08/25 01:57:24;;;;;;;63.25;51.72;;;26.70;56.30;;;;;;4917447;28;90977;-56
2022/08/25 01:59:50;;;;;;;62.97;51.65;;;26.70;56.30;;;;;;4914701;28;91408;-54
2022/08/25 02:02:15;;;;;;;63.22;52.00;;;26.70;56.30;;;;;;4915103;28;90807;-58
2022/08/25 02:04:41;;;;;;;63.45;51.78;;;26.70;56.30;;;;;;4917344;28;90945;-56
2022/08/25 02:07:07;;;;;;;62.63;51.83;;;26.70;56.40;;;;;;4911879;28;90134;-57
2022/08/25 02:09:35;;;;;;;63.40;51.95;;;26.70;56.40;;;;;;4911588;28;91391;-54
2022/08/25 02:12:01;;;;;;;63.05;52.00;;;26.70;56.50;;;;;;4915616;28;90540;-56
2022/08/25 02:14:27;;;;;;;63.22;52.08;;;26.70;56.40;;;;;;4912068;28;93133;-57
2022/08/25 02:16:54;;;;;;;63.67;51.88;;;26.70;56.50;;;;;;4917953;28;93313;-56
2022/08/25 02:19:22;;;;;;;62.72;51.95;;;26.60;56.50;;;;;;4913227;28;92255;-57
2022/08/25 02:21:48;;;;;;;63.13;51.63;;;26.60;56.50;;;;;;4915797;28;90696;-54
2022/08/25 02:24:14;;;;;;;62.83;51.80;;;26.70;56.60;;;;;;4923262;28;92413;-57
2022/08/25 02:26:40;;;;;;;62.92;51.85;;;26.60;56.50;;;;;;4917931;28;90600;-56
2022/08/25 02:29:07;;;;;;;62.63;51.80;;;26.60;56.60;;;;;;4919586;28;90861;-57
2022/08/25 02:31:33;;;;;;;63.28;51.83;;;26.70;56.60;;;;;;4926082;28;91213;-57
2022/08/25 02:34:00;;;;;;;62.47;51.67;;;26.60;56.60;;;;;;4921603;28;90168;-57
2022/08/25 02:36:26;;;;;;;63.35;51.92;;;26.60;56.60;;;;;;4916456;28;90220;-55
2022/08/25 02:38:52;;;;;;;63.35;52.05;;;26.60;56.70;;;;;;4919317;28;90928;-55
2022/08/25 02:41:22;;;;;;;62.83;51.92;;;26.60;56.60;;;;;;4919115;28;89273;-57
2022/08/25 02:43:48;;;;;;;62.77;52.00;;;26.70;56.70;;;;;;4916234;28;91024;-57
2022/08/25 02:46:16;;;;;;;63.03;51.85;;;26.60;56.70;;;;;;4913626;28;92317;-56
2022/08/25 02:48:41;;;;;;;62.75;52.15;;;26.60;56.70;;;;;;4920684;28;94239;-57
2022/08/25 02:51:09;;;;;;;63.85;52.00;;;26.60;56.80;;;;;;4916867;28;90134;-55
2022/08/25 02:53:38;;;;;;;63.75;51.95;;;26.60;56.80;;;;;;4909482;28;91367;-55
2022/08/25 02:56:05;;;;;;;63.00;51.60;;;26.60;56.80;;;;;;4918648;28;91504;-56
2022/08/25 02:58:31;;;;;;;62.88;52.05;;;26.50;56.80;;;;;;4921287;28;95511;-52
2022/08/25 03:00:57;;;;;;;62.83;51.85;;;26.60;56.90;;;;;;4926891;28;90425;-56
2022/08/25 03:03:22;;;;;;;62.72;51.65;;;26.60;56.90;;;;;;4930793;28;91600;-56
2022/08/25 03:05:48;;;;;;;62.55;51.65;;;26.50;56.90;;;;;;4907085;28;90999;-57
2022/08/25 03:08:14;;;;;;;62.58;51.83;;;26.50;57.00;;;;;;4909082;28;91783;-55
2022/08/25 03:10:40;;;;;;;63.75;51.90;;;26.50;57.00;;;;;;4922295;28;91856;-56
2022/08/25 03:13:06;;;;;;;63.15;51.83;;;26.50;57.50;;;;;;4921078;28;91130;-55
2022/08/25 03:15:31;;;;;;;62.65;52.00;;;26.50;57.10;;;;;;4927684;28;91460;-56
2022/08/25 03:17:57;;;;;;;63.83;51.95;;;26.50;57.00;;;;;;4922631;28;90363;-57
2022/08/25 03:20:24;;;;;;;62.72;51.80;;;26.50;57.00;;;;;;4923307;28;94748;-55
2022/08/25 03:22:50;;;;;;;63.20;51.95;;;26.50;57.10;;;;;;4915732;28;90817;-55
2022/08/25 03:28:02;;;;;;;62.50;51.80;;;26.50;57.30;;;;;;4921674;28;91742;-57
2022/08/25 03:30:28;;;;;;;62.42;51.65;;;26.50;57.20;;;;;;4930259;28;89641;-55
2022/08/25 03:32:55;;;;;;;62.92;51.92;;;26.50;57.30;;;;;;4919032;28;92712;-59
2022/08/25 03:35:21;;;;;;;62.45;51.70;;;26.40;57.30;;;;;;4919570;28;91027;-55
2022/08/25 03:37:46;;;;;;;63.30;51.92;;;26.40;57.40;;;;;;4917298;28;94468;-57
2022/08/25 03:40:14;;;;;;;62.60;51.80;;;26.40;57.30;;;;;;4917654;28;90429;-57
2022/08/25 03:42:41;;;;;;;62.95;52.13;;;26.40;57.40;;;;;;4914060;28;92075;-57
2022/08/25 03:45:10;;;;;;;63.15;51.92;;;26.40;57.40;;;;;;4911606;28;91244;-56
2022/08/25 03:47:36;;;;;;;62.95;52.05;;;26.40;57.40;;;;;;4922145;28;90587;-55
2022/08/25 03:50:04;;;;;;;62.28;51.38;;;26.40;57.40;;;;;;4911713;28;90475;-56
2022/08/25 03:52:30;;;;;;;62.83;51.97;;;26.40;57.50;;;;;;4924372;28;90591;-57
2022/08/25 03:54:55;;;;;;;62.40;51.78;;;26.40;57.60;;;;;;4924935;28;90651;-57
2022/08/25 03:57:21;;;;;;;62.83;51.90;;;26.40;57.60;;;;;;4930343;28;90245;-57
2022/08/25 03:59:46;;;;;;;62.42;51.67;;;26.30;57.60;;;;;;4913016;28;90560;-57
2022/08/25 04:02:12;;;;;;;62.55;51.65;;;26.30;57.60;;;;;;4908080;28;91244;-57
2022/08/25 04:04:39;;;;;;;63.30;51.95;;;26.30;57.60;;;;;;4922613;28;98586;-57
2022/08/25 04:07:05;;;;;;;62.72;51.95;;;26.40;57.70;;;;;;4914853;28;89970;-55
2022/08/25 04:09:31;;;;;;;62.78;52.13;;;26.30;57.80;;;;;;4908568;28;91568;-55
2022/08/25 04:11:57;;;;;;;62.78;51.80;;;26.30;57.60;;;;;;4920966;28;94649;-57
2022/08/25 04:14:22;;;;;;;62.65;51.85;;;26.30;57.60;;;;;;4919691;28;91855;-54
2022/08/25 04:16:48;;;;;;;62.30;51.70;;;26.30;57.70;;;;;;4921910;28;96929;-57
2022/08/25 04:19:14;;;;;;;65.55;52.00;;;26.30;57.90;;;;;;4920740;28;89099;-55
2022/08/25 04:21:40;;;;;;;63.75;51.90;;;26.30;57.90;;;;;;4919988;28;91292;-55
2022/08/25 04:24:09;;;;;;;64.35;51.80;;;26.20;58.00;;;;;;4927710;28;90372;-56
2022/08/25 04:26:41;;;;;;;61.92;51.65;;;26.20;58.00;;;;;;4918986;28;91933;-57
2022/08/25 04:29:09;;;;;;;64.10;51.90;;;26.30;58.00;;;;;;4917154;28;90779;-58
2022/08/25 04:31:35;;;;;;;62.30;51.83;;;26.30;58.10;;;;;;4922925;28;91658;-54
2022/08/25 04:34:04;;;;;;;62.60;51.85;;;26.20;58.00;;;;;;4917175;28;89935;-54
2022/08/25 04:36:31;;;;;;;63.20;51.83;;;26.20;58.20;;;;;;4915505;28;90994;-56
2022/08/25 04:38:57;;;;;;;63.03;52.00;;;26.20;58.10;;;;;;4918396;28;92122;-54
2022/08/25 04:41:24;;;;;;;62.95;51.75;;;26.20;58.20;;;;;;4918974;28;92532;-56
2022/08/25 04:43:50;;;;;;;64.82;51.80;;;26.20;58.20;;;;;;4918627;28;92198;-56
2022/08/25 04:46:21;;;;;;;62.80;51.65;;;26.20;58.30;;;;;;4918862;28;91773;-58
2022/08/25 04:48:49;;;;;;;63.70;51.67;;;26.20;58.30;;;;;;4920331;28;92433;-56
2022/08/25 04:51:22;;;;;;;63.45;52.13;;;26.20;58.20;;;;;;4925674;28;92127;-55
2022/08/25 04:53:49;;;;;;;62.38;51.95;;;26.20;58.20;;;;;;4926643;28;89963;-54
2022/08/25 04:56:18;;;;;;;62.15;51.85;;;26.20;58.20;;;;;;4918313;28;96275;-53
2022/08/25 04:58:45;;;;;;;62.88;51.83;;;26.20;58.20;;;;;;4919986;28;90845;-56
2022/08/25 05:01:17;;;;;;;63.55;51.92;;;26.20;58.20;;;;;;4908312;28;89922;-55
2022/08/25 05:03:44;;;;;;;63.80;52.13;;;26.20;58.20;;;;;;4920135;28;90416;-57
2022/08/25 05:06:10;;;;;;;63.97;51.88;;;26.20;58.30;;;;;;4925021;28;90877;-54
2022/08/25 05:08:36;;;;;;;64.80;52.20;;;26.20;58.30;;;;;;4918240;28;89900;-55
2022/08/25 05:11:11;;;;;;;62.67;51.85;;;26.20;58.30;;;;;;4925807;28;90837;-56
2022/08/25 05:13:37;;;;;;;62.92;51.83;;;26.20;58.30;;;;;;4919546;28;91416;-55
2022/08/25 05:16:04;;;;;;;62.72;52.10;;;26.20;58.30;;;;;;4925050;28;93556;-57
2022/08/25 05:18:32;;;;;;;66.18;52.17;;;26.20;58.40;;;;;;4917615;28;91578;-56
2022/08/25 05:21:03;;;;;;;63.00;51.92;;;26.20;58.40;;;;;;4914499;28;90448;-56
2022/08/25 05:23:29;;;;;;;62.88;51.90;;;26.20;58.40;;;;;;4918031;28;90813;-55
2022/08/25 05:25:55;;;;;;;65.00;52.30;;;26.20;58.50;;;;;;4924095;28;91682;-56
2022/08/25 05:28:21;;;;;;;62.95;51.95;;;26.20;58.60;;;;;;4933273;28;89861;-53
2022/08/25 05:30:50;;;;;;;63.70;52.17;;;26.20;58.50;;;;;;4913688;28;90859;-55
2022/08/25 05:33:15;;;;;;;63.97;52.30;;;26.20;58.50;;;;;;4912160;28;92344;-56
2022/08/25 05:35:42;;;;;;;65.20;52.08;;;26.20;58.50;;;;;;4920022;28;90149;-56
2022/08/25 05:38:07;;;;;;;67.07;52.15;;;26.20;58.50;;;;;;4915517;28;90292;-57
2022/08/25 05:40:33;;;;;;;64.60;52.42;;;26.20;58.60;;;;;;4904758;28;92864;-55
2022/08/25 05:42:59;;;;;;;63.83;52.42;;;26.20;58.70;;;;;;4914862;28;93418;-57
2022/08/25 05:45:25;;;;;;;65.65;52.53;;;26.20;58.60;;;;;;4910002;28;90177;-54
2022/08/25 05:47:50;;;;;;;69.13;52.58;;;26.20;58.70;;;;;;4917827;28;92695;-53
2022/08/25 05:50:17;;;;;;;64.15;52.55;;;26.20;58.80;;;;;;4919233;28;92171;-57
2022/08/25 05:52:43;;;;;;;64.40;52.35;;;26.20;58.70;;;;;;4916336;28;91010;-57
2022/08/25 05:55:09;;;;;;;64.97;52.85;;;26.20;58.70;;;;;;4915766;28;90612;-56
2022/08/25 05:57:35;;;;;;;65.60;52.67;;;26.20;58.80;;;;;;4921074;28;91157;-55
2022/08/25 06:00:03;;;;;;;66.40;52.42;;;26.20;58.70;;;;;;4922571;28;91500;-56
2022/08/25 06:02:42;;;;;;;67.35;52.45;;;26.20;58.60;;;;;;4911265;28;91206;-57
2022/08/25 06:05:16;;;;;;;66.05;52.45;;;26.30;58.70;;;;;;4903718;28;92843;-53
2022/08/25 06:07:42;;;;;;;68.50;52.83;;;26.30;58.70;;;;;;4913013;28;90724;-56
2022/08/25 06:10:12;;;;;;;91.47;56.75;;;26.30;58.90;;;;;;4915160;28;91204;-58
2022/08/25 06:12:39;;;;;;;75.38;54.17;;;26.20;59.30;;;;;;4916329;28;90006;-57
2022/08/25 06:15:05;;;;;;;77.93;55.40;;;25.90;59.80;;;;;;4908211;28;91236;-57
2022/08/25 06:17:31;;;;;;;79.75;55.35;;;25.70;60.60;;;;;;4913650;28;91117;-57
2022/08/25 06:19:57;;;;;;;82.40;56.22;;;25.70;60.90;;;;;;4918651;28;91035;-58
2022/08/25 06:22:24;;;;;;;80.88;55.70;;;25.70;60.80;;;;;;4918108;28;91429;-58
2022/08/25 06:24:50;;;;;;;76.95;55.92;;;25.60;62.00;;;;;;4920793;28;94375;-56
2022/08/25 06:27:16;;;;;;;74.50;55.35;;;25.60;62.00;;;;;;4927423;28;90687;-58
2022/08/25 06:29:42;;;;;;;86.88;55.67;;;25.50;62.20;;;;;;4920187;28;97670;-57
2022/08/25 06:32:08;;;;;;;87.18;55.30;;;25.50;62.10;;;;;;4921762;28;90515;-58
2022/08/25 06:34:33;;;;;;;75.78;54.40;;;25.40;62.20;;;;;;4934738;28;90029;-57
2022/08/25 06:37:00;;;;;;;81.00;55.55;;;25.40;62.10;;;;;;4921509;28;93620;-57
2022/08/25 06:39:25;;;;;;;79.05;54.95;;;25.40;62.10;;;;;;4936690;28;90261;-56
2022/08/25 06:41:52;;;;;;;78.95;55.15;;;25.40;62.10;;;;;;4911705;28;97374;-60
2022/08/25 06:44:18;;;;;;;80.50;54.83;;;25.40;62.10;;;;;;4916042;28;92164;-60
2022/08/25 06:46:44;;;;;;;84.30;54.58;;;25.40;61.30;;;;;;4919873;28;89928;-60
2022/08/25 06:49:10;;;;;;;79.00;54.22;;;25.30;61.30;;;;;;4928193;28;91146;-59
2022/08/25 06:51:35;;;;;;;82.90;54.25;;;25.30;61.30;;;;;;4917089;28;91486;-59
2022/08/25 06:54:02;;;;;;;77.07;53.88;;;25.20;60.00;;;;;;4918615;28;93267;-59
2022/08/25 06:56:27;;;;;;;84.93;53.80;;;25.20;59.60;;;;;;4929151;28;95061;-60
2022/08/25 06:58:53;;;;;;;79.80;53.58;;;25.30;57.80;;;;;;4924662;28;91712;-59
2022/08/25 07:01:25;;;;;;;75.55;53.72;;;25.30;56.60;;;;;;4921803;28;90042;-59
2022/08/25 07:03:58;;;;;;;77.10;53.80;;;25.40;56.60;;;;;;4926407;28;91458;-59
2022/08/25 07:06:27;;;;;;;83.90;53.90;;;25.40;57.10;;;;;;4912159;28;90309;-59
2022/08/25 07:08:53;;;;;;;76.10;53.30;;;25.40;56.80;;;;;;4906343;28;91697;-60
2022/08/25 07:11:20;;;;;;;75.15;53.33;;;25.60;56.90;;;;;;4908500;28;89709;-58
2022/08/25 07:13:47;;;;;;;75.80;53.65;;;25.60;56.50;;;;;;4926539;28;94535;-56
2022/08/25 07:16:16;;;;;;;70.53;53.17;;;25.60;55.80;;;;;;4929170;28;91081;-57
2022/08/25 07:18:43;;;;;;;73.80;52.85;;;25.60;56.00;;;;;;4917753;28;93000;-56
2022/08/25 07:21:11;;;;;;;71.07;53.08;;;25.60;55.70;;;;;;4912780;28;90773;-57
2022/08/25 07:23:37;;;;;;;74.03;52.92;;;25.80;54.90;;;;;;4915945;28;92842;-55
2022/08/25 07:26:13;;;;;;;69.88;52.83;;;25.80;54.90;;;;;;4916582;28;90831;-54
2022/08/25 07:28:39;;;;;;;68.07;53.20;;;25.90;54.60;;;;;;4925189;28;90037;-55
2022/08/25 07:31:05;;;;;;;67.90;52.97;;;25.90;54.60;;;;;;4932030;28;92278;-59
2022/08/25 07:33:31;;;;;;;65.18;53.05;;;25.90;54.40;;;;;;4931129;28;90645;-58
2022/08/25 07:35:57;;;;;;;66.57;52.67;;;25.90;54.30;;;;;;4912829;28;90008;-59
2022/08/25 07:38:22;;;;;;;66.65;52.92;;;25.90;54.10;;;;;;4930968;28;90721;-57
2022/08/25 07:40:53;;;;;;;66.57;52.92;;;25.90;54.30;;;;;;4912281;28;91266;-56
2022/08/25 07:43:20;;;;;;;67.03;52.90;;;26.00;54.30;;;;;;4916370;28;91417;-59
2022/08/25 07:45:47;;;;;;;70.03;52.72;;;26.00;53.90;;;;;;4918659;28;90431;-56
2022/08/25 07:48:13;;;;;;;66.70;53.08;;;26.00;54.10;;;;;;4919079;28;91231;-55
2022/08/25 07:50:44;;;;;;;67.70;52.75;;;26.10;53.60;;;;;;4934486;28;89870;-59
2022/08/25 07:53:11;;;;;;;69.38;52.60;;;26.20;53.80;;;;;;4920538;28;89779;-60
2022/08/25 07:55:37;;;;;;;66.72;52.67;;;26.10;53.80;;;;;;4921746;28;90864;-59
2022/08/25 07:58:04;;;;;;;68.30;53.13;;;26.20;54.00;;;;;;4913584;28;96674;-60
2022/08/25 08:00:32;;;;;;;69.05;52.88;;;26.20;53.90;;;;;;4908674;28;89355;-61
2022/08/25 08:03:00;;;;;;;67.75;53.10;;;26.30;54.00;;;;;;4925015;28;90888;-58
2022/08/25 08:05:27;;;;;;;68.05;52.88;;;26.30;53.80;;;;;;4919809;28;89680;-64
2022/08/25 08:07:54;;;;;;;67.03;53.05;;;26.40;53.90;;;;;;4918082;28;91431;-60
2022/08/25 08:10:21;;;;;;;67.65;53.05;;;26.40;53.60;;;;;;4924999;28;92771;-60
2022/08/25 08:12:48;;;;;;;66.03;53.17;;;26.50;52.50;;;;;;4913172;28;91483;-60
2022/08/25 08:15:14;;;;;;;69.63;53.13;;;26.50;53.00;;;;;;4911207;28;91332;-60
2022/08/25 08:17:40;;;;;;;67.13;53.20;;;26.60;53.00;;;;;;4917283;28;90813;-65
2022/08/25 08:20:09;;;;;;;68.93;53.22;;;26.60;53.20;;;;;;4919767;28;90913;-59
2022/08/25 08:22:36;;;;;;;65.05;53.20;;;26.60;53.30;;;;;;4917472;28;91377;-59
2022/08/25 08:25:03;;;;;;;71.22;53.63;;;26.70;52.90;;;;;;4926793;28;92456;-60
2022/08/25 08:27:28;;;;;;;66.72;53.33;;;26.80;53.50;;;;;;4918971;28;91093;-58
2022/08/25 08:29:54;;;;;;;69.15;53.22;;;26.80;53.50;;;;;;4919191;28;90815;-58
2022/08/25 08:32:20;;;;;;;68.88;53.55;;;26.80;53.70;;;;;;4917887;28;96421;-56
2022/08/25 08:34:46;;;;;;;72.07;53.55;;;26.90;53.70;;;;;;4927422;28;89590;-58
2022/08/25 08:37:13;;;;;;;74.75;53.63;;;27.00;53.60;;;;;;4921664;28;91191;-58
2022/08/25 08:39:39;;;;;;;68.75;53.60;;;26.90;53.40;;;;;;4913951;28;90929;-58
2022/08/25 08:42:29;;;;;;;69.82;53.55;;;27.00;53.40;;;;;;4916971;28;89903;-57
2022/08/25 08:45:10;;;;;;;70.30;53.50;;;27.00;53.30;;;;;;4917518;28;90350;-58
2022/08/25 08:47:42;;;;;;;67.28;53.53;;;27.10;53.50;;;;;;4912298;28;90866;-58
2022/08/25 08:50:38;;;;;;;66.65;52.97;;;27.10;53.60;;;;;;4916724;28;92857;-58
2022/08/25 08:53:10;;;;;;;70.18;53.83;;;27.00;53.90;;;;;;4903101;28;90852;-55
2022/08/25 08:55:48;;;;;;;69.03;53.65;;;27.00;53.70;;;;;;4911669;28;90320;-57
2022/08/25 08:58:24;;;;;;;69.07;53.35;;;27.00;53.90;;;;;;4909188;28;91418;-56
2022/08/25 09:00:54;;;;;;;71.07;53.85;;;26.90;53.50;;;;;;4917792;28;93129;-58
2022/08/25 09:03:39;;;;;;;68.17;53.20;;;26.80;54.10;;;;;;4913265;28;90734;-58
2022/08/25 09:06:13;;;;;;;67.72;53.28;;;26.80;55.10;;;;;;4909810;28;91554;-57
2022/08/25 09:08:43;;;;;;;68.82;53.15;;;26.80;54.50;;;;;;4913770;28;91847;-59
2022/08/25 09:11:38;;;;;;;67.35;53.58;;;26.80;53.60;;;;;;4920189;28;91547;-57
2022/08/25 09:14:23;;;;;;;69.00;53.30;;;26.80;54.50;;;;;;4918473;28;93654;-59
2022/08/25 09:17:35;;;;;;;68.50;53.38;;;26.80;54.30;;;;;;4918573;28;91452;-58
2022/08/25 09:20:08;;;;;;;65.55;53.17;;;26.80;53.90;;;;;;4925257;28;91528;-58
2022/08/25 09:22:54;;;;;;;66.97;53.50;;;26.80;53.70;;;;;;4919187;28;90403;-58
2022/08/25 09:25:57;;;;;;;67.45;53.40;;;26.80;53.50;;;;;;4887622;28;91013;-58
2022/08/25 09:28:49;;;;;;;70.25;53.50;;;26.80;53.10;;;;;;4910777;28;91591;-57
2022/08/25 09:31:37;;;;;;;67.03;53.13;;;26.80;52.40;;;;;;4925912;28;90179;-58
2022/08/25 09:34:06;;;;;;;67.60;53.03;;;26.80;51.70;;;;;;4926295;28;89920;-57
2022/08/25 09:36:32;;;;;;;66.85;53.08;;;26.80;51.30;;;;;;4914959;28;91613;-57
2022/08/25 09:38:59;;;;;;;67.32;53.63;;;26.80;51.30;;;;;;4915762;28;90888;-56
2022/08/25 09:41:56;;;;;;;67.88;53.28;;;26.80;50.40;;;;;;4926465;28;91254;-57
2022/08/25 09:44:26;;;;;;;64.88;53.17;;;26.90;49.70;;;;;;4919189;28;89389;-57
2022/08/25 09:47:00;;;;;;;67.28;52.88;;;26.90;49.10;;;;;;4919840;28;90158;-57
2022/08/25 09:49:46;;;;;;;65.10;52.78;;;26.90;48.60;;;;;;4913456;28;91279;-58
2022/08/25 09:52:24;;;;;;;64.85;52.83;;;26.80;49.40;;;;;;4914437;28;92859;-58
2022/08/25 09:54:50;;;;;;;64.93;53.20;;;26.80;48.80;;;;;;4916574;28;91356;-50
2022/08/25 09:57:32;;;;;;;68.47;53.70;;;26.70;50.00;;;;;;4919689;28;89948;-54
2022/08/25 10:00:20;;;;;;;67.00;53.20;;;26.70;49.30;;;;;;4915862;28;91109;-56
2022/08/25 10:03:06;;;;;;;67.85;53.33;;;26.70;49.30;;;;;;4916838;28;92387;-60
2022/08/25 10:05:36;;;;;;;65.97;52.97;;;26.80;49.10;;;;;;4920736;28;90003;-58
2022/08/25 10:08:11;;;;;;;68.18;52.85;;;26.80;48.50;;;;;;4929878;28;90684;-60
2022/08/25 10:10:44;;;;;;;65.43;52.80;;;26.80;48.00;;;;;;4920386;28;89985;-57
2022/08/25 10:13:17;;;;;;;72.50;53.85;;;26.90;47.70;;;;;;4917971;28;91390;-56
2022/08/25 10:15:44;;;;;;;69.40;53.08;;;26.80;48.50;;;;;;4913437;28;90117;-56
2022/08/25 10:18:22;;;;;;;66.80;53.45;;;26.80;48.80;;;;;;4929609;28;91297;-50
2022/08/25 10:21:06;;;;;;;68.75;53.63;;;26.80;48.00;;;;;;4916099;28;95976;-54
2022/08/25 10:23:35;;;;;;;67.85;53.70;;;26.80;48.50;;;;;;4916406;28;90490;-57
2022/08/25 10:26:07;;;;;;;69.05;53.70;;;26.80;48.30;;;;;;4909521;28;94165;-57
2022/08/25 10:28:45;;;;;;;66.20;53.25;;;26.80;49.00;;;;;;4926022;28;90910;-56
2022/08/25 10:31:33;;;;;;;67.75;53.60;;;26.80;49.20;;;;;;4909092;28;91808;-56
2022/08/25 10:34:15;;;;;;;68.85;53.55;;;26.90;49.60;;;;;;4918730;28;91327;-57
2022/08/25 10:37:00;;;;;;;69.47;53.40;;;26.80;49.70;;;;;;4915642;28;90644;-57
2022/08/25 10:39:28;;;;;;;68.18;53.75;;;26.90;49.90;;;;;;4923886;28;90851;-57
2022/08/25 10:42:13;;;;;;;67.00;53.70;;;26.90;50.00;;;;;;4943070;28;90279;-57
2022/08/25 10:48:15;;;;;;;66.72;53.55;;;26.90;50.40;;;;;;4919368;28;91066;-56
2022/08/25 10:51:05;;;;;;;65.70;53.28;;;27.00;50.70;;;;;;4927092;28;92210;-57
2022/08/25 10:54:09;;;;;;;66.72;53.38;;;27.00;50.90;;;;;;4920444;28;91562;-57
2022/08/25 10:56:40;;;;;;;66.75;53.60;;;27.00;51.20;;;;;;4921220;28;90798;-57
2022/08/25 10:59:08;;;;;;;68.70;53.85;;;27.00;51.30;;;;;;4920511;28;89720;-56
2022/08/25 11:01:44;;;;;;;67.85;53.60;;;27.00;51.40;;;;;;4922493;28;89789;-57
2022/08/25 11:04:25;;;;;;;69.10;53.83;;;27.10;51.40;;;;;;4923289;28;93566;-56
2022/08/25 11:06:56;;;;;;;69.25;54.10;;;27.10;51.50;;;;;;4924963;28;91456;-56
2022/08/25 11:09:32;;;;;;;69.28;54.00;;;27.10;51.50;;;;;;4921653;28;91712;-56
2022/08/25 11:11:59;;;;;;;67.97;53.97;;;27.20;51.60;;;;;;4918102;28;90611;-57
2022/08/25 11:14:33;;;;;;;68.70;54.05;;;27.20;51.60;;;;;;4924388;28;90922;-57
2022/08/25 11:17:09;;;;;;;69.35;53.63;;;27.30;51.60;;;;;;4920851;28;92185;-57
2022/08/25 11:19:42;;;;;;;68.35;54.22;;;27.40;51.60;;;;;;4922273;28;91253;-57
2022/08/25 11:22:16;;;;;;;69.70;54.13;;;27.40;51.50;;;;;;4924911;28;91142;-57
2022/08/25 11:25:02;;;;;;;67.47;53.83;;;27.50;51.50;;;;;;4922680;28;91043;-56
2022/08/25 11:27:43;;;;;;;68.30;54.03;;;27.60;51.50;;;;;;4919932;28;90675;-54
2022/08/25 11:30:15;;;;;;;67.28;53.50;;;27.60;51.40;;;;;;4915086;28;89603;-56
2022/08/25 11:32:46;;;;;;;69.32;53.65;;;27.60;51.40;;;;;;4915072;28;95050;-57
2022/08/25 11:35:15;;;;;;;69.95;53.92;;;27.60;51.60;;;;;;4925896;28;93646;-57
2022/08/25 11:38:11;;;;;;;68.70;53.78;;;27.60;52.10;;;;;;4910874;28;94234;-55
2022/08/25 11:40:51;;;;;;;67.43;53.70;;;27.50;52.30;;;;;;4920393;28;90809;-53
2022/08/25 11:43:55;;;;;;;68.38;53.53;;;27.50;53.00;;;;;;4922369;28;94793;-55
2022/08/25 11:46:23;;;;;;;70.55;54.15;;;27.40;53.70;;;;;;4918356;28;89947;-54
2022/08/25 11:48:56;;;;;;;71.80;53.67;;;27.30;53.50;;;;;;4934367;28;96909;-54
2022/08/25 11:51:39;;;;;;;68.80;54.35;;;27.20;53.30;;;;;;4919498;28;93539;-57
2022/08/25 11:54:19;;;;;;;68.53;54.17;;;27.20;52.70;;;;;;4925798;28;91322;-57
2022/08/25 11:57:20;;;;;;;67.85;54.00;;;27.20;52.30;;;;;;4922414;28;91075;-52
2022/08/25 11:59:48;;;;;;;68.53;53.72;;;27.20;51.80;;;;;;4924593;28;97785;-57
2022/08/25 12:02:50;;;;;;;67.15;54.05;;;27.10;51.30;;;;;;4917279;28;92270;-49
2022/08/25 12:05:18;;;;;;;67.00;53.63;;;27.00;51.00;;;;;;4918915;28;91721;-54
2022/08/25 12:11:07;;;;;;;74.80;53.95;;;27.10;50.50;;;;;;4921214;28;91221;-55
2022/08/25 12:13:48;;;;;;;70.15;54.03;;;27.10;50.30;;;;;;4910527;28;92287;-54
2022/08/25 12:16:59;;;;;;;68.93;53.95;;;27.10;50.70;;;;;;4923587;28;90325;-57
2022/08/25 12:19:33;;;;;;;69.65;54.30;;;27.20;50.10;;;;;;4924306;28;90000;-59
2022/08/25 12:22:02;;;;;;;72.60;53.88;;;27.20;49.40;;;;;;4924801;28;91631;-55
2022/08/25 12:24:52;;;;;;;69.53;54.22;;;27.10;48.60;;;;;;4922057;28;90745;-56
2022/08/25 12:27:30;;;;;;;70.38;54.00;;;27.10;48.40;;;;;;4925604;28;93822;-58
2022/08/25 12:30:12;;;;;;;67.65;53.60;;;27.10;48.40;;;;;;4917879;28;93875;-57
2022/08/25 12:32:38;;;;;;;70.20;54.08;;;27.10;48.30;;;;;;4918380;28;92956;-58
2022/08/25 12:35:22;;;;;;;73.28;54.13;;;27.10;48.90;;;;;;4928641;28;90250;-56
2022/08/25 12:38:03;;;;;;;71.35;53.75;;;27.20;48.40;;;;;;4924103;28;90572;-57
2022/08/25 12:40:34;;;;;;;67.05;53.88;;;27.20;48.60;;;;;;4926247;28;89555;-53
2022/08/25 12:43:11;;;;;;;68.88;53.65;;;27.20;48.50;;;;;;4922885;28;90639;-52
2022/08/25 12:45:43;;;;;;;69.75;53.72;;;27.30;48.20;;;;;;4925328;28;90017;-51
2022/08/25 12:48:27;;;;;;;67.28;53.85;;;27.30;47.60;;;;;;4927465;28;90412;-51
2022/08/25 12:51:05;;;;;;;68.93;54.13;;;27.20;47.00;;;;;;4924914;28;90867;-51
2022/08/25 12:53:41;;;;;;;67.68;53.80;;;27.20;46.70;;;;;;4922705;28;90998;-56
2022/08/25 12:56:26;;;;;;;66.70;54.00;;;27.20;46.30;;;;;;4925842;28;90991;-52